sensor_id;sensor_type;location;lat;lon;timestamp;temperature;humidity
15257;DHT22;7731;50.720;6.912;2022-07-04T00:01:17;16.10;1.00
15257;DHT22;7731;50.720;6.912;2022-07-04T00:03:47;16.00;1.00
15257;DHT22;7731;50.720;6.912;2022-07-04T00:06:20;15.90;8.90
15257;DHT22;7731;50.720;6.912;2022-07-04T00:08:50;15.80;7.40
15257;DHT22;7731;50.720;6.912;2022-07-04T00:11:21;15.80;5.30
15257;DHT22;7731;50.720;6.912;2022-07-04T00:13:51;15.80;12.70
15257;DHT22;7731;50.720;6.912;2022-07-04T00:16:21;15.70;18.60
15257;DHT22;7731;50.720;6.912;2022-07-04T00:18:52;15.60;23.40
15257;DHT22;7731;50.720;6.912;2022-07-04T00:21:25;15.40;44.30
15257;DHT22;7731;50.720;6.912;2022-07-04T00:23:55;15.40;57.40
15257;DHT22;7731;50.720;6.912;2022-07-04T00:26:26;15.30;74.80
15257;DHT22;7731;50.720;6.912;2022-07-04T00:28:56;15.30;87.50
15257;DHT22;7731;50.720;6.912;2022-07-04T00:31:26;15.30;81.50
15257;DHT22;7731;50.720;6.912;2022-07-04T00:33:57;15.40;50.50
15257;DHT22;7731;50.720;6.912;2022-07-04T00:36:30;15.40;28.50
15257;DHT22;7731;50.720;6.912;2022-07-04T00:39:00;15.50;5.10
15257;DHT22;7731;50.720;6.912;2022-07-04T00:41:31;15.50;7.80
15257;DHT22;7731;50.720;6.912;2022-07-04T00:44:03;15.50;7.00
15257;DHT22;7731;50.720;6.912;2022-07-04T00:46:40;15.50;9.30
15257;DHT22;7731;50.720;6.912;2022-07-04T00:49:12;15.50;11.30
15257;DHT22;7731;50.720;6.912;2022-07-04T00:51:46;15.50;7.20
15257;DHT22;7731;50.720;6.912;2022-07-04T00:54:17;15.50;19.50
15257;DHT22;7731;50.720;6.912;2022-07-04T00:56:49;15.50;5.00
15257;DHT22;7731;50.720;6.912;2022-07-04T00:59:19;15.50;8.60
15257;DHT22;7731;50.720;6.912;2022-07-04T01:01:50;15.40;48.30
15257;DHT22;7731;50.720;6.912;2022-07-04T01:04:21;15.30;48.30
15257;DHT22;7731;50.720;6.912;2022-07-04T01:06:55;15.20;67.40
15257;DHT22;7731;50.720;6.912;2022-07-04T01:09:25;15.00;86.30
15257;DHT22;7731;50.720;6.912;2022-07-04T01:11:56;14.90;99.90
15257;DHT22;7731;50.720;6.912;2022-07-04T01:14:26;14.80;99.90
15257;DHT22;7731;50.720;6.912;2022-07-04T01:16:56;14.70;99.90
15257;DHT22;7731;50.720;6.912;2022-07-04T01:19:26;14.60;99.90
15257;DHT22;7731;50.720;6.912;2022-07-04T01:22:05;14.60;99.90
15257;DHT22;7731;50.720;6.912;2022-07-04T01:24:36;14.70;99.90
15257;DHT22;7731;50.720;6.912;2022-07-04T01:27:06;14.70;99.90
15257;DHT22;7731;50.720;6.912;2022-07-04T01:29:36;14.70;99.90
15257;DHT22;7731;50.720;6.912;2022-07-04T01:32:08;14.70;99.90
15257;DHT22;7731;50.720;6.912;2022-07-04T01:34:39;14.80;99.90
15257;DHT22;7731;50.720;6.912;2022-07-04T01:37:12;14.90;99.90
15257;DHT22;7731;50.720;6.912;2022-07-04T01:39:43;14.70;99.90
15257;DHT22;7731;50.720;6.912;2022-07-04T01:42:14;14.60;99.90
15257;DHT22;7731;50.720;6.912;2022-07-04T01:44:44;14.60;99.90
15257;DHT22;7731;50.720;6.912;2022-07-04T01:47:15;14.60;99.90
15257;DHT22;7731;50.720;6.912;2022-07-04T01:49:45;14.60;99.90
15257;DHT22;7731;50.720;6.912;2022-07-04T01:52:18;14.50;99.90
15257;DHT22;7731;50.720;6.912;2022-07-04T01:54:49;14.40;99.90
15257;DHT22;7731;50.720;6.912;2022-07-04T01:57:19;14.40;99.90
15257;DHT22;7731;50.720;6.912;2022-07-04T01:59:50;14.30;99.90
15257;DHT22;7731;50.720;6.912;2022-07-04T02:02:33;14.30;99.90
15257;DHT22;7731;50.720;6.912;2022-07-04T02:05:03;14.40;99.90
15257;DHT22;7731;50.720;6.912;2022-07-04T02:07:37;14.50;99.90
15257;DHT22;7731;50.720;6.912;2022-07-04T02:10:08;14.60;99.90
15257;DHT22;7731;50.720;6.912;2022-07-04T02:12:39;14.50;99.90
15257;DHT22;7731;50.720;6.912;2022-07-04T02:15:23;14.30;99.90
15257;DHT22;7731;50.720;6.912;2022-07-04T02:17:53;14.30;99.90
15257;DHT22;7731;50.720;6.912;2022-07-04T02:20:24;14.30;99.90
15257;DHT22;7731;50.720;6.912;2022-07-04T02:22:58;14.40;99.90
15257;DHT22;7731;50.720;6.912;2022-07-04T02:25:28;14.40;99.90
15257;DHT22;7731;50.720;6.912;2022-07-04T02:27:59;14.30;99.90
15257;DHT22;7731;50.720;6.912;2022-07-04T02:30:29;14.20;99.90
15257;DHT22;7731;50.720;6.912;2022-07-04T02:33:00;14.20;99.90
15257;DHT22;7731;50.720;6.912;2022-07-04T02:35:30;14.20;99.90
15257;DHT22;7731;50.720;6.912;2022-07-04T02:38:03;14.20;99.90
15257;DHT22;7731;50.720;6.912;2022-07-04T02:40:33;14.10;99.90
15257;DHT22;7731;50.720;6.912;2022-07-04T02:43:04;14.00;99.90
15257;DHT22;7731;50.720;6.912;2022-07-04T02:45:34;14.10;99.90
15257;DHT22;7731;50.720;6.912;2022-07-04T02:48:05;14.20;99.90
15257;DHT22;7731;50.720;6.912;2022-07-04T02:50:35;14.30;99.90
15257;DHT22;7731;50.720;6.912;2022-07-04T02:53:08;14.10;99.90
15257;DHT22;7731;50.720;6.912;2022-07-04T02:55:39;14.00;99.90
15257;DHT22;7731;50.720;6.912;2022-07-04T02:58:09;14.00;99.90
15257;DHT22;7731;50.720;6.912;2022-07-04T03:00:40;14.00;99.90
15257;DHT22;7731;50.720;6.912;2022-07-04T03:03:10;14.00;99.90
15257;DHT22;7731;50.720;6.912;2022-07-04T03:05:40;14.00;99.90
15257;DHT22;7731;50.720;6.912;2022-07-04T03:08:38;13.90;99.90
15257;DHT22;7731;50.720;6.912;2022-07-04T03:11:09;13.80;99.90
15257;DHT22;7731;50.720;6.912;2022-07-04T03:13:40;13.90;99.90
15257;DHT22;7731;50.720;6.912;2022-07-04T03:16:11;14.10;99.90
15257;DHT22;7731;50.720;6.912;2022-07-04T03:18:41;14.00;99.90
15257;DHT22;7731;50.720;6.912;2022-07-04T03:21:12;13.90;99.90
15257;DHT22;7731;50.720;6.912;2022-07-04T03:23:45;13.80;99.90
15257;DHT22;7731;50.720;6.912;2022-07-04T03:26:24;13.90;99.90
15257;DHT22;7731;50.720;6.912;2022-07-04T03:28:56;13.80;99.90
15257;DHT22;7731;50.720;6.912;2022-07-04T03:31:28;13.70;99.90
15257;DHT22;7731;50.720;6.912;2022-07-04T03:33:59;13.70;99.90
15257;DHT22;7731;50.720;6.912;2022-07-04T03:36:29;13.60;99.90
15257;DHT22;7731;50.720;6.912;2022-07-04T03:39:03;13.60;99.90
15257;DHT22;7731;50.720;6.912;2022-07-04T03:41:33;13.60;99.90
15257;DHT22;7731;50.720;6.912;2022-07-04T03:44:04;13.70;99.90
15257;DHT22;7731;50.720;6.912;2022-07-04T03:46:35;13.70;99.90
15257;DHT22;7731;50.720;6.912;2022-07-04T03:49:05;13.70;99.90
15257;DHT22;7731;50.720;6.912;2022-07-04T03:51:37;13.70;99.90
15257;DHT22;7731;50.720;6.912;2022-07-04T03:54:10;13.70;99.90
15257;DHT22;7731;50.720;6.912;2022-07-04T03:56:44;13.70;99.90
15257;DHT22;7731;50.720;6.912;2022-07-04T03:59:14;13.70;99.90
15257;DHT22;7731;50.720;6.912;2022-07-04T04:01:45;13.70;99.90
15257;DHT22;7731;50.720;6.912;2022-07-04T04:04:15;13.70;99.90
15257;DHT22;7731;50.720;6.912;2022-07-04T04:06:58;13.80;99.90
15257;DHT22;7731;50.720;6.912;2022-07-04T04:09:31;13.90;99.90
15257;DHT22;7731;50.720;6.912;2022-07-04T04:12:01;13.80;99.90
15257;DHT22;7731;50.720;6.912;2022-07-04T04:14:32;13.70;99.90
15257;DHT22;7731;50.720;6.912;2022-07-04T04:17:03;13.60;99.90
15257;DHT22;7731;50.720;6.912;2022-07-04T04:19:33;13.50;99.90
15257;DHT22;7731;50.720;6.912;2022-07-04T04:22:04;13.50;99.90
15257;DHT22;7731;50.720;6.912;2022-07-04T04:24:37;13.50;99.90
15257;DHT22;7731;50.720;6.912;2022-07-04T04:27:08;13.60;99.90
15257;DHT22;7731;50.720;6.912;2022-07-04T04:29:38;13.60;99.90
15257;DHT22;7731;50.720;6.912;2022-07-04T04:32:09;13.70;99.90
15257;DHT22;7731;50.720;6.912;2022-07-04T04:34:39;14.00;99.90
15257;DHT22;7731;50.720;6.912;2022-07-04T04:37:10;14.40;47.10
15257;DHT22;7731;50.720;6.912;2022-07-04T04:39:43;14.40;47.20
15257;DHT22;7731;50.720;6.912;2022-07-04T04:42:13;14.40;48.90
15257;DHT22;7731;50.720;6.912;2022-07-04T04:44:44;14.40;28.80
15257;DHT22;7731;50.720;6.912;2022-07-04T04:47:14;14.20;64.20
15257;DHT22;7731;50.720;6.912;2022-07-04T04:49:44;14.00;97.70
15257;DHT22;7731;50.720;6.912;2022-07-04T04:52:15;14.10;92.40
15257;DHT22;7731;50.720;6.912;2022-07-04T04:55:04;14.10;93.80
15257;DHT22;7731;50.720;6.912;2022-07-04T04:57:35;14.10;93.70
15257;DHT22;7731;50.720;6.912;2022-07-04T05:00:06;14.20;97.70
15257;DHT22;7731;50.720;6.912;2022-07-04T05:02:37;14.30;86.30
15257;DHT22;7731;50.720;6.912;2022-07-04T05:05:08;14.20;82.10
15257;DHT22;7731;50.720;6.912;2022-07-04T05:07:39;14.30;81.30
15257;DHT22;7731;50.720;6.912;2022-07-04T05:10:12;14.40;75.40
15257;DHT22;7731;50.720;6.912;2022-07-04T05:12:42;14.40;56.60
15257;DHT22;7731;50.720;6.912;2022-07-04T05:15:13;14.60;48.50
15257;DHT22;7731;50.720;6.912;2022-07-04T05:17:43;14.70;28.90
15257;DHT22;7731;50.720;6.912;2022-07-04T05:20:14;15.30;1.00
15257;DHT22;7731;50.720;6.912;2022-07-04T05:22:44;17.00;1.00
15257;DHT22;7731;50.720;6.912;2022-07-04T05:25:17;19.40;1.00
15257;DHT22;7731;50.720;6.912;2022-07-04T05:27:47;21.20;99.90
15257;DHT22;7731;50.720;6.912;2022-07-04T05:30:18;23.30;99.90
15257;DHT22;7731;50.720;6.912;2022-07-04T05:32:48;24.50;1.00
15257;DHT22;7731;50.720;6.912;2022-07-04T05:35:19;24.80;1.00
15257;DHT22;7731;50.720;6.912;2022-07-04T05:37:49;24.70;1.00
15257;DHT22;7731;50.720;6.912;2022-07-04T05:40:22;26.00;1.00
15257;DHT22;7731;50.720;6.912;2022-07-04T05:42:53;26.20;1.00
15257;DHT22;7731;50.720;6.912;2022-07-04T05:45:23;26.10;1.00
15257;DHT22;7731;50.720;6.912;2022-07-04T05:47:54;26.40;1.00
15257;DHT22;7731;50.720;6.912;2022-07-04T05:50:24;27.50;1.00
15257;DHT22;7731;50.720;6.912;2022-07-04T05:52:59;27.70;1.00
15257;DHT22;7731;50.720;6.912;2022-07-04T05:55:32;28.10;1.00
15257;DHT22;7731;50.720;6.912;2022-07-04T05:58:02;28.40;1.00
15257;DHT22;7731;50.720;6.912;2022-07-04T06:00:33;29.00;99.90
15257;DHT22;7731;50.720;6.912;2022-07-04T06:03:03;29.10;1.00
15257;DHT22;7731;50.720;6.912;2022-07-04T06:05:33;28.40;1.00
15257;DHT22;7731;50.720;6.912;2022-07-04T06:08:04;28.70;1.00
15257;DHT22;7731;50.720;6.912;2022-07-04T06:10:37;28.40;1.00
15257;DHT22;7731;50.720;6.912;2022-07-04T06:13:08;29.90;99.90
15257;DHT22;7731;50.720;6.912;2022-07-04T06:15:38;29.50;1.00
15257;DHT22;7731;50.720;6.912;2022-07-04T06:18:09;30.00;99.90
15257;DHT22;7731;50.720;6.912;2022-07-04T06:20:39;30.00;99.90
15257;DHT22;7731;50.720;6.912;2022-07-04T06:23:10;30.00;1.00
15257;DHT22;7731;50.720;6.912;2022-07-04T06:25:43;30.20;99.90
15257;DHT22;7731;50.720;6.912;2022-07-04T06:28:13;30.00;1.00
15257;DHT22;7731;50.720;6.912;2022-07-04T06:31:04;30.20;1.00
15257;DHT22;7731;50.720;6.912;2022-07-04T06:33:35;29.90;1.00
15257;DHT22;7731;50.720;6.912;2022-07-04T06:36:26;29.70;1.00
15257;DHT22;7731;50.720;6.912;2022-07-04T06:38:53;29.90;1.00
15257;DHT22;7731;50.720;6.912;2022-07-04T06:41:26;30.20;1.00
15257;DHT22;7731;50.720;6.912;2022-07-04T06:43:57;31.10;1.00
15257;DHT22;7731;50.720;6.912;2022-07-04T06:46:27;31.50;99.90
15257;DHT22;7731;50.720;6.912;2022-07-04T06:48:58;32.20;99.90
15257;DHT22;7731;50.720;6.912;2022-07-04T06:51:52;32.30;99.90
15257;DHT22;7731;50.720;6.912;2022-07-04T06:54:22;32.30;99.90
15257;DHT22;7731;50.720;6.912;2022-07-04T06:56:56;31.20;1.00
15257;DHT22;7731;50.720;6.912;2022-07-04T06:59:46;30.60;1.00
15257;DHT22;7731;50.720;6.912;2022-07-04T07:02:16;30.10;1.00
15257;DHT22;7731;50.720;6.912;2022-07-04T07:04:47;30.80;1.00
15257;DHT22;7731;50.720;6.912;2022-07-04T07:07:17;32.00;1.00
15257;DHT22;7731;50.720;6.912;2022-07-04T07:09:48;32.60;1.00
15257;DHT22;7731;50.720;6.912;2022-07-04T07:12:20;32.40;1.00
15257;DHT22;7731;50.720;6.912;2022-07-04T07:14:52;31.70;1.00
15257;DHT22;7731;50.720;6.912;2022-07-04T07:17:22;31.50;1.00
15257;DHT22;7731;50.720;6.912;2022-07-04T07:19:52;32.40;1.00
15257;DHT22;7731;50.720;6.912;2022-07-04T07:22:23;31.80;1.00
15257;DHT22;7731;50.720;6.912;2022-07-04T07:24:54;32.50;1.00
15257;DHT22;7731;50.720;6.912;2022-07-04T07:27:27;32.60;1.00
15257;DHT22;7731;50.720;6.912;2022-07-04T07:29:58;31.70;1.00
15257;DHT22;7731;50.720;6.912;2022-07-04T07:32:28;32.50;1.00
15257;DHT22;7731;50.720;6.912;2022-07-04T07:34:59;33.20;1.00
15257;DHT22;7731;50.720;6.912;2022-07-04T07:37:29;34.50;1.00
15257;DHT22;7731;50.720;6.912;2022-07-04T07:40:00;33.50;1.00
15257;DHT22;7731;50.720;6.912;2022-07-04T07:42:34;34.50;1.00
15257;DHT22;7731;50.720;6.912;2022-07-04T07:45:06;33.80;1.00
15257;DHT22;7731;50.720;6.912;2022-07-04T07:47:37;33.40;1.00
15257;DHT22;7731;50.720;6.912;2022-07-04T07:50:08;33.70;1.00
15257;DHT22;7731;50.720;6.912;2022-07-04T07:52:38;33.40;1.00
15257;DHT22;7731;50.720;6.912;2022-07-04T07:55:09;32.00;1.00
15257;DHT22;7731;50.720;6.912;2022-07-04T07:57:41;32.30;1.00
15257;DHT22;7731;50.720;6.912;2022-07-04T08:00:15;32.00;1.00
15257;DHT22;7731;50.720;6.912;2022-07-04T08:03:06;31.90;1.00
15257;DHT22;7731;50.720;6.912;2022-07-04T08:05:49;32.50;1.00
15257;DHT22;7731;50.720;6.912;2022-07-04T08:08:28;32.20;1.00
15257;DHT22;7731;50.720;6.912;2022-07-04T08:10:58;33.20;1.00
15257;DHT22;7731;50.720;6.912;2022-07-04T08:13:32;31.60;1.00
15257;DHT22;7731;50.720;6.912;2022-07-04T08:16:02;32.20;1.00
15257;DHT22;7731;50.720;6.912;2022-07-04T08:18:33;32.80;1.00
15257;DHT22;7731;50.720;6.912;2022-07-04T08:21:04;32.80;1.00
15257;DHT22;7731;50.720;6.912;2022-07-04T08:23:39;32.20;1.00
15257;DHT22;7731;50.720;6.912;2022-07-04T08:26:30;32.00;1.00
15257;DHT22;7731;50.720;6.912;2022-07-04T08:29:03;32.60;1.00
15257;DHT22;7731;50.720;6.912;2022-07-04T08:31:33;32.70;1.00
15257;DHT22;7731;50.720;6.912;2022-07-04T08:34:18;31.60;1.00
15257;DHT22;7731;50.720;6.912;2022-07-04T08:36:48;32.30;1.00
15257;DHT22;7731;50.720;6.912;2022-07-04T08:39:18;33.60;1.00
15257;DHT22;7731;50.720;6.912;2022-07-04T08:41:51;35.20;1.00
15257;DHT22;7731;50.720;6.912;2022-07-04T08:44:28;35.60;1.00
15257;DHT22;7731;50.720;6.912;2022-07-04T08:46:58;33.50;1.00
15257;DHT22;7731;50.720;6.912;2022-07-04T08:49:30;32.70;1.00
15257;DHT22;7731;50.720;6.912;2022-07-04T08:52:04;31.30;1.00
15257;DHT22;7731;50.720;6.912;2022-07-04T08:54:39;31.80;1.00
15257;DHT22;7731;50.720;6.912;2022-07-04T08:57:22;33.00;1.00
15257;DHT22;7731;50.720;6.912;2022-07-04T09:00:08;32.60;1.00
15257;DHT22;7731;50.720;6.912;2022-07-04T09:02:39;34.20;1.00
15257;DHT22;7731;50.720;6.912;2022-07-04T09:05:09;34.40;1.00
15257;DHT22;7731;50.720;6.912;2022-07-04T09:07:40;34.70;1.00
15257;DHT22;7731;50.720;6.912;2022-07-04T09:10:11;32.70;1.00
15257;DHT22;7731;50.720;6.912;2022-07-04T09:12:41;32.00;1.00
15257;DHT22;7731;50.720;6.912;2022-07-04T09:15:34;31.80;1.00
15257;DHT22;7731;50.720;6.912;2022-07-04T09:18:05;32.00;1.00
15257;DHT22;7731;50.720;6.912;2022-07-04T09:20:35;32.40;1.00
15257;DHT22;7731;50.720;6.912;2022-07-04T09:23:17;33.30;1.00
15257;DHT22;7731;50.720;6.912;2022-07-04T09:25:48;34.90;1.00
15257;DHT22;7731;50.720;6.912;2022-07-04T09:28:35;33.60;1.00
15257;DHT22;7731;50.720;6.912;2022-07-04T09:31:22;33.30;1.00
15257;DHT22;7731;50.720;6.912;2022-07-04T09:33:55;32.50;1.00
15257;DHT22;7731;50.720;6.912;2022-07-04T09:36:27;33.80;1.00
15257;DHT22;7731;50.720;6.912;2022-07-04T09:39:07;33.20;1.00
15257;DHT22;7731;50.720;6.912;2022-07-04T09:41:53;32.50;1.00
15257;DHT22;7731;50.720;6.912;2022-07-04T09:44:26;31.90;1.00
15257;DHT22;7731;50.720;6.912;2022-07-04T09:47:19;31.90;1.00
15257;DHT22;7731;50.720;6.912;2022-07-04T09:50:02;32.70;1.00
15257;DHT22;7731;50.720;6.912;2022-07-04T09:52:47;32.40;1.00
15257;DHT22;7731;50.720;6.912;2022-07-04T09:55:22;31.90;1.00
15257;DHT22;7731;50.720;6.912;2022-07-04T09:57:58;32.70;1.00
15257;DHT22;7731;50.720;6.912;2022-07-04T10:00:30;33.80;1.00
15257;DHT22;7731;50.720;6.912;2022-07-04T10:03:20;33.80;1.00
15257;DHT22;7731;50.720;6.912;2022-07-04T10:06:04;33.70;1.00
15257;DHT22;7731;50.720;6.912;2022-07-04T10:08:36;33.40;1.00
15257;DHT22;7731;50.720;6.912;2022-07-04T10:11:07;32.30;1.00
15257;DHT22;7731;50.720;6.912;2022-07-04T10:13:45;31.80;1.00
15257;DHT22;7731;50.720;6.912;2022-07-04T10:16:17;32.60;1.00
15257;DHT22;7731;50.720;6.912;2022-07-04T10:18:51;32.50;1.00
15257;DHT22;7731;50.720;6.912;2022-07-04T10:21:24;33.00;1.00
15257;DHT22;7731;50.720;6.912;2022-07-04T10:23:54;33.00;1.00
15257;DHT22;7731;50.720;6.912;2022-07-04T10:26:25;32.60;1.00
15257;DHT22;7731;50.720;6.912;2022-07-04T10:28:58;31.90;1.00
15257;DHT22;7731;50.720;6.912;2022-07-04T10:31:30;32.00;1.00
15257;DHT22;7731;50.720;6.912;2022-07-04T10:34:04;31.90;1.00
15257;DHT22;7731;50.720;6.912;2022-07-04T10:36:34;32.50;1.00
15257;DHT22;7731;50.720;6.912;2022-07-04T10:39:05;32.30;1.00
15257;DHT22;7731;50.720;6.912;2022-07-04T10:41:35;31.20;1.00
15257;DHT22;7731;50.720;6.912;2022-07-04T10:44:27;31.50;1.00
15257;DHT22;7731;50.720;6.912;2022-07-04T10:47:04;31.50;1.00
15257;DHT22;7731;50.720;6.912;2022-07-04T10:49:38;31.60;1.00
15257;DHT22;7731;50.720;6.912;2022-07-04T10:52:13;31.80;1.00
15257;DHT22;7731;50.720;6.912;2022-07-04T10:54:44;32.50;1.00
15257;DHT22;7731;50.720;6.912;2022-07-04T10:57:16;32.70;1.00
15257;DHT22;7731;50.720;6.912;2022-07-04T11:00:04;33.30;1.00
15257;DHT22;7731;50.720;6.912;2022-07-04T11:02:37;32.20;1.00
15257;DHT22;7731;50.720;6.912;2022-07-04T11:05:11;31.80;1.00
15257;DHT22;7731;50.720;6.912;2022-07-04T11:08:05;31.50;1.00
15257;DHT22;7731;50.720;6.912;2022-07-04T11:10:38;31.40;1.00
15257;DHT22;7731;50.720;6.912;2022-07-04T11:13:17;30.70;1.00
15257;DHT22;7731;50.720;6.912;2022-07-04T11:16:02;30.00;1.00
15257;DHT22;7731;50.720;6.912;2022-07-04T11:18:42;29.20;1.00
15257;DHT22;7731;50.720;6.912;2022-07-04T11:21:21;28.80;1.00
15257;DHT22;7731;50.720;6.912;2022-07-04T11:23:54;28.80;1.00
15257;DHT22;7731;50.720;6.912;2022-07-04T11:26:25;28.30;1.00
15257;DHT22;7731;50.720;6.912;2022-07-04T11:28:56;28.10;1.00
15257;DHT22;7731;50.720;6.912;2022-07-04T11:31:36;27.90;1.00
15257;DHT22;7731;50.720;6.912;2022-07-04T11:34:08;27.70;1.00
15257;DHT22;7731;50.720;6.912;2022-07-04T11:37:01;27.70;1.00
15257;DHT22;7731;50.720;6.912;2022-07-04T11:39:33;27.70;1.00
15257;DHT22;7731;50.720;6.912;2022-07-04T11:42:03;27.30;1.00
15257;DHT22;7731;50.720;6.912;2022-07-04T11:44:46;27.60;1.00
15257;DHT22;7731;50.720;6.912;2022-07-04T11:47:34;27.90;1.00
15257;DHT22;7731;50.720;6.912;2022-07-04T11:50:07;28.00;1.00
15257;DHT22;7731;50.720;6.912;2022-07-04T11:52:44;28.00;1.00
15257;DHT22;7731;50.720;6.912;2022-07-04T11:55:37;28.60;1.00
15257;DHT22;7731;50.720;6.912;2022-07-04T11:58:07;28.50;1.00
15257;DHT22;7731;50.720;6.912;2022-07-04T12:00:40;28.20;1.00
15257;DHT22;7731;50.720;6.912;2022-07-04T12:03:10;28.30;1.00
15257;DHT22;7731;50.720;6.912;2022-07-04T12:05:41;28.80;1.00
15257;DHT22;7731;50.720;6.912;2022-07-04T12:08:15;28.70;1.00
15257;DHT22;7731;50.720;6.912;2022-07-04T12:10:52;28.90;1.00
15257;DHT22;7731;50.720;6.912;2022-07-04T12:13:22;28.90;1.00
15257;DHT22;7731;50.720;6.912;2022-07-04T12:15:53;28.70;1.00
15257;DHT22;7731;50.720;6.912;2022-07-04T12:18:25;28.50;1.00
15257;DHT22;7731;50.720;6.912;2022-07-04T12:21:11;28.20;1.00
15257;DHT22;7731;50.720;6.912;2022-07-04T12:23:53;28.10;1.00
15257;DHT22;7731;50.720;6.912;2022-07-04T12:26:32;28.00;1.00
15257;DHT22;7731;50.720;6.912;2022-07-04T12:29:03;28.30;1.00
15257;DHT22;7731;50.720;6.912;2022-07-04T12:31:39;28.00;1.00
15257;DHT22;7731;50.720;6.912;2022-07-04T12:34:14;28.00;1.00
15257;DHT22;7731;50.720;6.912;2022-07-04T12:36:49;28.20;1.00
15257;DHT22;7731;50.720;6.912;2022-07-04T12:39:33;28.50;1.00
15257;DHT22;7731;50.720;6.912;2022-07-04T12:42:09;28.50;1.00
15257;DHT22;7731;50.720;6.912;2022-07-04T12:44:42;28.30;1.00
15257;DHT22;7731;50.720;6.912;2022-07-04T12:47:16;28.20;1.00
15257;DHT22;7731;50.720;6.912;2022-07-04T12:50:07;27.80;1.00
15257;DHT22;7731;50.720;6.912;2022-07-04T12:52:39;27.70;1.00
15257;DHT22;7731;50.720;6.912;2022-07-04T12:55:14;27.40;1.00
15257;DHT22;7731;50.720;6.912;2022-07-04T12:57:45;27.10;1.00
15257;DHT22;7731;50.720;6.912;2022-07-04T13:00:15;26.90;1.00
15257;DHT22;7731;50.720;6.912;2022-07-04T13:03:02;26.90;1.00
15257;DHT22;7731;50.720;6.912;2022-07-04T13:05:34;27.30;1.00
15257;DHT22;7731;50.720;6.912;2022-07-04T13:08:06;27.50;1.00
15257;DHT22;7731;50.720;6.912;2022-07-04T13:10:39;27.70;1.00
15257;DHT22;7731;50.720;6.912;2022-07-04T13:13:09;28.30;1.00
15257;DHT22;7731;50.720;6.912;2022-07-04T13:15:39;28.20;1.00
15257;DHT22;7731;50.720;6.912;2022-07-04T13:18:10;28.20;1.00
15257;DHT22;7731;50.720;6.912;2022-07-04T13:20:40;27.90;1.00
15257;DHT22;7731;50.720;6.912;2022-07-04T13:23:11;28.10;1.00
15257;DHT22;7731;50.720;6.912;2022-07-04T13:25:49;28.20;1.00
15257;DHT22;7731;50.720;6.912;2022-07-04T13:28:19;28.00;1.00
15257;DHT22;7731;50.720;6.912;2022-07-04T13:30:50;27.60;1.00
15257;DHT22;7731;50.720;6.912;2022-07-04T13:33:20;27.40;1.00
15257;DHT22;7731;50.720;6.912;2022-07-04T13:39:24;27.30;1.00
15257;DHT22;7731;50.720;6.912;2022-07-04T13:42:17;27.10;1.00
15257;DHT22;7731;50.720;6.912;2022-07-04T13:49:10;27.10;1.00
15257;DHT22;7731;50.720;6.912;2022-07-04T13:51:40;27.20;1.00
15257;DHT22;7731;50.720;6.912;2022-07-04T13:54:11;27.30;1.00
15257;DHT22;7731;50.720;6.912;2022-07-04T13:56:41;27.30;1.00
15257;DHT22;7731;50.720;6.912;2022-07-04T13:59:14;27.50;1.00
15257;DHT22;7731;50.720;6.912;2022-07-04T14:01:45;27.80;1.00
15257;DHT22;7731;50.720;6.912;2022-07-04T14:04:15;27.90;1.00
15257;DHT22;7731;50.720;6.912;2022-07-04T14:06:46;27.90;1.00
15257;DHT22;7731;50.720;6.912;2022-07-04T14:09:16;27.70;1.00
15257;DHT22;7731;50.720;6.912;2022-07-04T14:11:46;27.60;1.00
15257;DHT22;7731;50.720;6.912;2022-07-04T14:14:19;27.40;1.00
15257;DHT22;7731;50.720;6.912;2022-07-04T14:16:49;27.70;1.00
15257;DHT22;7731;50.720;6.912;2022-07-04T14:19:20;27.80;1.00
15257;DHT22;7731;50.720;6.912;2022-07-04T14:21:50;28.00;1.00
15257;DHT22;7731;50.720;6.912;2022-07-04T14:24:21;27.70;1.00
15257;DHT22;7731;50.720;6.912;2022-07-04T14:26:52;27.40;1.00
15257;DHT22;7731;50.720;6.912;2022-07-04T14:29:25;27.40;1.00
15257;DHT22;7731;50.720;6.912;2022-07-04T14:31:56;27.50;1.00
15257;DHT22;7731;50.720;6.912;2022-07-04T14:34:26;27.40;1.00
15257;DHT22;7731;50.720;6.912;2022-07-04T14:36:56;27.10;1.00
15257;DHT22;7731;50.720;6.912;2022-07-04T14:39:27;27.40;1.00
15257;DHT22;7731;50.720;6.912;2022-07-04T14:41:57;27.70;1.00
15257;DHT22;7731;50.720;6.912;2022-07-04T14:44:30;27.30;1.00
15257;DHT22;7731;50.720;6.912;2022-07-04T14:47:04;27.10;1.00
15257;DHT22;7731;50.720;6.912;2022-07-04T14:49:38;27.30;1.00
15257;DHT22;7731;50.720;6.912;2022-07-04T14:52:09;27.20;1.00
15257;DHT22;7731;50.720;6.912;2022-07-04T14:54:39;27.20;1.00
15257;DHT22;7731;50.720;6.912;2022-07-04T14:57:09;27.30;1.00
15257;DHT22;7731;50.720;6.912;2022-07-04T14:59:44;27.40;1.00
15257;DHT22;7731;50.720;6.912;2022-07-04T15:02:14;27.40;1.00
15257;DHT22;7731;50.720;6.912;2022-07-04T15:04:44;27.10;1.00
15257;DHT22;7731;50.720;6.912;2022-07-04T15:07:15;27.20;1.00
15257;DHT22;7731;50.720;6.912;2022-07-04T15:09:45;27.40;1.00
15257;DHT22;7731;50.720;6.912;2022-07-04T15:12:15;27.40;1.00
15257;DHT22;7731;50.720;6.912;2022-07-04T15:14:49;27.40;1.00
15257;DHT22;7731;50.720;6.912;2022-07-04T15:17:20;27.60;1.00
15257;DHT22;7731;50.720;6.912;2022-07-04T15:19:51;27.50;1.00
15257;DHT22;7731;50.720;6.912;2022-07-04T15:22:33;27.30;1.00
15257;DHT22;7731;50.720;6.912;2022-07-04T15:25:16;27.20;1.00
15257;DHT22;7731;50.720;6.912;2022-07-04T15:27:47;26.90;1.00
15257;DHT22;7731;50.720;6.912;2022-07-04T15:30:21;27.10;1.00
15257;DHT22;7731;50.720;6.912;2022-07-04T15:32:51;27.30;1.00
15257;DHT22;7731;50.720;6.912;2022-07-04T15:35:22;27.40;1.00
15257;DHT22;7731;50.720;6.912;2022-07-04T15:37:52;27.30;1.00
15257;DHT22;7731;50.720;6.912;2022-07-04T15:40:22;27.10;1.00
15257;DHT22;7731;50.720;6.912;2022-07-04T15:42:53;26.80;1.00
15257;DHT22;7731;50.720;6.912;2022-07-04T15:45:25;26.50;1.00
15257;DHT22;7731;50.720;6.912;2022-07-04T15:47:56;26.40;1.00
15257;DHT22;7731;50.720;6.912;2022-07-04T15:50:26;26.20;1.00
15257;DHT22;7731;50.720;6.912;2022-07-04T15:52:57;26.20;1.00
15257;DHT22;7731;50.720;6.912;2022-07-04T15:55:27;26.20;1.00
15257;DHT22;7731;50.720;6.912;2022-07-04T15:57:57;26.20;1.00
15257;DHT22;7731;50.720;6.912;2022-07-04T16:00:31;26.50;1.00
15257;DHT22;7731;50.720;6.912;2022-07-04T16:03:01;26.50;1.00
15257;DHT22;7731;50.720;6.912;2022-07-04T16:05:32;26.70;1.00
15257;DHT22;7731;50.720;6.912;2022-07-04T16:08:02;26.90;1.00
15257;DHT22;7731;50.720;6.912;2022-07-04T16:10:33;26.80;1.00
15257;DHT22;7731;50.720;6.912;2022-07-04T16:13:04;26.70;1.00
15257;DHT22;7731;50.720;6.912;2022-07-04T16:15:41;26.70;1.00
15257;DHT22;7731;50.720;6.912;2022-07-04T16:18:13;26.70;1.00
15257;DHT22;7731;50.720;6.912;2022-07-04T16:20:43;26.90;1.00
15257;DHT22;7731;50.720;6.912;2022-07-04T16:23:14;27.00;1.00
15257;DHT22;7731;50.720;6.912;2022-07-04T16:25:44;27.10;1.00
15257;DHT22;7731;50.720;6.912;2022-07-04T16:28:14;27.20;1.00
15257;DHT22;7731;50.720;6.912;2022-07-04T16:30:48;26.90;1.00
15257;DHT22;7731;50.720;6.912;2022-07-04T16:33:18;26.90;1.00
15257;DHT22;7731;50.720;6.912;2022-07-04T16:35:48;26.80;1.00
15257;DHT22;7731;50.720;6.912;2022-07-04T16:38:19;26.90;1.00
15257;DHT22;7731;50.720;6.912;2022-07-04T16:40:49;26.90;1.00
15257;DHT22;7731;50.720;6.912;2022-07-04T16:43:19;26.80;1.00